Terminal Aerodrome Forecast
Issued by NWS

Home | Current Version | Previous Version | Text Only | Print | Product List | Glossary On
Versions: 1 2 3 4 5 6 7 8 9 10 11 12 13 14 15 16 17 18 19 20 21 22 23 24 25 26 27 28 29 30
000
FTUS43 KILX 302059 AAA
TAFDEC
TAF AMD
KDEC 302059Z 3021/0118 16014G21KT P6SM VCSH SCT008 OVC050
      TEMPO 3021/0101 3SM SHRA BR BKN008 OVC025
     FM010100 18015G25KT P6SM -SHRA VCTS SCT015 BKN025CB
      TEMPO 0101/0104 3SM TSRA BR BKN015CB
     FM010400 22011G22KT P6SM BKN045
     FM011400 23016G25KT P6SM BKN025=

USA.gov is the U.S. government's official web portal to all federal, state and local government web resources and services.